Time;durP1;ratioP1;P1;durP2;ratioP2;P2;SDS_P1;SDS_P2;PMS_P1;PMS_P2;Temp;Humidity;BMP_temperature;BMP_pressure;BME280_temperature;BME280_humidity;BME280_pressure;Samples;Min_cycle;Max_cycle;Signal;HPM_P1;HPM_P2
2023/06/30 00:00:55;;;;;;;9.43;3.13;;;18.20;99.00;;;;;;6272570;22;20091;-82
2023/06/30 00:03:22;;;;;;;7.13;3.40;;;18.10;99.00;;;;;;6245038;22;20008;-81
2023/06/30 00:05:48;;;;;;;7.65;2.85;;;18.10;99.10;;;;;;6245826;22;20030;-82
2023/06/30 00:08:13;;;;;;;6.15;2.78;;;18.10;99.20;;;;;;6245515;22;20364;-81
2023/06/30 00:10:39;;;;;;;7.00;2.92;;;18.10;99.20;;;;;;6245773;22;20008;-82
2023/06/30 00:13:04;;;;;;;7.60;3.08;;;18.00;99.20;;;;;;6245573;22;20069;-82
2023/06/30 00:15:30;;;;;;;11.38;3.53;;;18.00;99.20;;;;;;6245585;22;20004;-83
2023/06/30 00:17:56;;;;;;;7.55;2.90;;;18.00;99.20;;;;;;6244651;22;20031;-82
2023/06/30 00:20:23;;;;;;;8.48;2.67;;;18.00;99.20;;;;;;6272367;22;20003;-82
2023/06/30 00:22:49;;;;;;;7.13;3.03;;;17.90;99.10;;;;;;6245589;22;20019;-83
2023/06/30 00:25:15;;;;;;;9.75;3.25;;;17.90;99.00;;;;;;6244930;22;20014;-82
2023/06/30 00:27:40;;;;;;;6.55;2.80;;;17.80;98.90;;;;;;6245463;22;20337;-82
2023/06/30 00:30:07;;;;;;;5.70;2.33;;;17.70;98.90;;;;;;6245198;22;20456;-82
2023/06/30 00:32:33;;;;;;;10.00;2.78;;;17.60;98.90;;;;;;6271495;22;20063;-81
2023/06/30 00:35:00;;;;;;;6.85;2.95;;;17.50;98.90;;;;;;6244861;22;20011;-81
2023/06/30 00:37:26;;;;;;;10.63;2.83;;;17.60;98.90;;;;;;6245293;22;20003;-81
2023/06/30 00:39:51;;;;;;;11.00;2.90;;;17.50;98.90;;;;;;6272305;22;20074;-82
2023/06/30 00:42:17;;;;;;;7.90;3.78;;;17.40;99.00;;;;;;6271867;22;20331;-81
2023/06/30 00:44:43;;;;;;;9.73;3.70;;;17.40;99.00;;;;;;6245423;22;20030;-79
2023/06/30 00:47:09;;;;;;;7.90;3.10;;;17.30;99.10;;;;;;6244001;22;20008;-82
2023/06/30 00:49:35;;;;;;;9.05;3.53;;;17.30;99.10;;;;;;6245162;22;20364;-81
2023/06/30 00:52:01;;;;;;;9.52;2.88;;;17.20;99.10;;;;;;6244742;22;20007;-82
2023/06/30 00:54:27;;;;;;;7.35;3.42;;;17.20;99.20;;;;;;6272562;22;19996;-82
2023/06/30 00:56:52;;;;;;;6.47;3.17;;;17.10;99.30;;;;;;6245487;22;20000;-82
2023/06/30 00:59:18;;;;;;;10.45;3.35;;;17.10;99.40;;;;;;6272495;22;20003;-81
2023/06/30 01:02:07;;;;;;;11.05;3.72;;;17.10;99.30;;;;;;6271852;22;20015;-81
2023/06/30 01:04:36;;;;;;;9.82;3.38;;;17.00;99.40;;;;;;6245162;22;20071;-82
2023/06/30 01:07:12;;;;;;;9.77;3.72;;;17.00;99.40;;;;;;6271998;22;19999;-82
2023/06/30 01:09:48;;;;;;;9.48;3.97;;;17.00;99.40;;;;;;6245171;22;20434;-81
2023/06/30 01:12:13;;;;;;;6.13;3.53;;;16.90;99.50;;;;;;6244697;22;20365;-82
2023/06/30 01:14:40;;;;;;;8.68;3.83;;;16.90;99.50;;;;;;6244510;22;20004;-81
2023/06/30 01:17:06;;;;;;;9.80;3.80;;;16.80;99.60;;;;;;6272012;22;20000;-82
2023/06/30 01:19:38;;;;;;;12.27;3.80;;;16.80;99.70;;;;;;6272350;22;20031;-82
2023/06/30 01:22:14;;;;;;;8.95;3.75;;;16.80;99.80;;;;;;6272143;22;20060;-82
2023/06/30 01:24:43;;;;;;;6.80;2.85;;;16.70;99.80;;;;;;6272764;22;20000;-82
2023/06/30 01:27:12;;;;;;;12.20;3.35;;;16.70;99.90;;;;;;6244760;22;20012;-81
2023/06/30 01:29:42;;;;;;;9.00;4.55;;;16.70;99.90;;;;;;6271562;22;20010;-80
2023/06/30 01:32:08;;;;;;;11.65;3.92;;;16.60;99.90;;;;;;6244604;22;20000;-81
2023/06/30 01:34:34;;;;;;;12.00;4.00;;;16.60;99.90;;;;;;6271922;22;20053;-80
2023/06/30 01:36:59;;;;;;;9.57;4.00;;;16.50;99.90;;;;;;6271702;22;20004;-81
2023/06/30 01:39:25;;;;;;;8.45;4.25;;;16.50;99.90;;;;;;6244699;22;20325;-81
2023/06/30 01:41:51;;;;;;;11.13;4.05;;;16.40;99.90;;;;;;6272451;22;20003;-82
2023/06/30 01:44:17;;;;;;;10.85;3.95;;;16.40;99.90;;;;;;6271220;22;20027;-81
2023/06/30 01:46:43;;;;;;;13.15;4.60;;;16.40;99.90;;;;;;6246760;22;20054;-81
2023/06/30 01:49:11;;;;;;;9.50;3.90;;;16.30;99.90;;;;;;6246576;22;20003;-81
2023/06/30 01:51:37;;;;;;;8.80;4.88;;;16.30;99.90;;;;;;6271902;22;20006;-81
2023/06/30 01:54:02;;;;;;;9.77;4.38;;;16.30;99.90;;;;;;6243882;22;20000;-81
2023/06/30 01:56:28;;;;;;;13.35;4.60;;;16.30;99.90;;;;;;6271827;22;20023;-82
2023/06/30 01:58:54;;;;;;;8.60;4.35;;;16.20;99.90;;;;;;6272784;22;20035;-81
2023/06/30 02:01:19;;;;;;;10.98;4.45;;;16.20;99.90;;;;;;6245055;22;20041;-81
2023/06/30 02:03:47;;;;;;;7.28;4.25;;;16.20;99.90;;;;;;6272209;22;20010;-81
2023/06/30 02:06:13;;;;;;;8.40;4.30;;;16.20;99.90;;;;;;6271541;22;20403;-81
2023/06/30 02:08:38;;;;;;;10.60;4.28;;;16.10;99.90;;;;;;6272095;22;20010;-81
2023/06/30 02:11:04;;;;;;;14.18;4.60;;;16.00;99.90;;;;;;6271305;22;20000;-81
2023/06/30 02:13:29;;;;;;;12.63;4.45;;;16.00;99.90;;;;;;6244273;22;20018;-81
2023/06/30 02:15:55;;;;;;;15.35;4.88;;;16.00;99.90;;;;;;6244749;22;20102;-82
2023/06/30 02:18:22;;;;;;;12.05;5.25;;;15.90;99.90;;;;;;6244716;22;20011;-81
2023/06/30 02:20:47;;;;;;;9.77;4.47;;;15.90;99.90;;;;;;6244861;22;20074;-82
2023/06/30 02:23:13;;;;;;;9.65;4.30;;;15.90;99.90;;;;;;6271698;22;20397;-81
2023/06/30 02:25:38;;;;;;;10.65;3.83;;;15.80;99.90;;;;;;6244755;22;20003;-81
2023/06/30 02:28:04;;;;;;;13.18;4.63;;;15.80;99.90;;;;;;6244007;22;20012;-82
2023/06/30 02:30:30;;;;;;;13.18;4.35;;;15.80;99.90;;;;;;6272083;22;20035;-81
2023/06/30 02:32:56;;;;;;;7.50;4.22;;;15.70;99.90;;;;;;6244381;22;20022;-81
2023/06/30 02:35:21;;;;;;;8.52;3.83;;;15.70;99.90;;;;;;6272115;22;20003;-81
2023/06/30 02:37:47;;;;;;;7.15;3.72;;;15.70;99.90;;;;;;6245723;22;19999;-81
2023/06/30 02:40:13;;;;;;;13.98;3.78;;;15.60;99.90;;;;;;6272965;22;20183;-81
2023/06/30 02:42:38;;;;;;;7.45;4.38;;;15.60;99.90;;;;;;6272329;22;20058;-81
2023/06/30 02:45:05;;;;;;;9.40;4.75;;;15.60;99.90;;;;;;6271487;22;20003;-82
2023/06/30 02:47:30;;;;;;;9.90;3.10;;;15.50;99.90;;;;;;6244778;22;20000;-82
2023/06/30 02:49:56;;;;;;;5.13;3.25;;;15.50;99.90;;;;;;6244033;22;20014;-81
2023/06/30 02:52:21;;;;;;;8.48;3.28;;;15.40;99.90;;;;;;6245190;22;20082;-81
2023/06/30 02:54:47;;;;;;;10.27;3.70;;;15.40;99.90;;;;;;6246846;22;20392;-81
2023/06/30 02:57:13;;;;;;;8.50;3.30;;;15.40;99.90;;;;;;6243683;22;20003;-82
2023/06/30 02:59:38;;;;;;;11.55;4.10;;;15.30;99.90;;;;;;6245471;22;20361;-82
2023/06/30 03:02:04;;;;;;;7.47;3.28;;;15.30;99.90;;;;;;6244384;22;20004;-81
2023/06/30 03:04:30;;;;;;;9.98;3.38;;;15.30;99.90;;;;;;6271841;22;20415;-82
2023/06/30 03:06:55;;;;;;;7.43;2.75;;;15.20;99.90;;;;;;6244569;22;20000;-81
2023/06/30 03:09:21;;;;;;;8.52;3.80;;;15.20;99.90;;;;;;6244247;22;20007;-81
2023/06/30 03:11:46;;;;;;;5.38;3.33;;;15.20;99.90;;;;;;6244399;22;20000;-82
2023/06/30 03:14:12;;;;;;;8.10;3.13;;;15.10;99.90;;;;;;6246038;22;20401;-82
2023/06/30 03:16:38;;;;;;;6.82;3.08;;;15.10;99.90;;;;;;6246665;22;20062;-81
2023/06/30 03:19:03;;;;;;;8.50;3.45;;;15.00;99.90;;;;;;6246317;22;20043;-82
2023/06/30 03:21:29;;;;;;;10.52;3.97;;;15.00;99.90;;;;;;6273769;22;20008;-81
2023/06/30 03:23:54;;;;;;;6.43;3.25;;;15.00;99.90;;;;;;6246330;22;20019;-81
2023/06/30 03:26:20;;;;;;;7.05;3.50;;;14.90;99.90;;;;;;6245979;22;20305;-82
2023/06/30 03:28:45;;;;;;;8.63;2.83;;;14.90;99.90;;;;;;6246361;22;20078;-82
2023/06/30 03:31:11;;;;;;;8.20;3.50;;;14.90;99.90;;;;;;6246333;22;20003;-82
2023/06/30 03:33:36;;;;;;;7.75;3.83;;;14.90;99.90;;;;;;6246397;22;20926;-81
2023/06/30 03:36:02;;;;;;;7.38;3.50;;;14.80;99.90;;;;;;6246055;22;20035;-81
2023/06/30 03:38:28;;;;;;;12.98;3.40;;;14.80;99.90;;;;;;6246233;22;20008;-82
2023/06/30 03:40:54;;;;;;;7.63;3.75;;;14.80;99.90;;;;;;6272691;22;19999;-81
2023/06/30 03:43:22;;;;;;;13.13;3.72;;;14.70;99.90;;;;;;6246208;22;20008;-82
2023/06/30 03:45:48;;;;;;;8.93;3.40;;;14.70;99.90;;;;;;6246642;22;20100;-81
2023/06/30 03:48:14;;;;;;;7.38;4.05;;;14.70;99.90;;;;;;6246043;22;20409;-81
2023/06/30 03:50:42;;;;;;;11.18;4.30;;;14.60;99.90;;;;;;6246269;22;20461;-82
2023/06/30 03:53:08;;;;;;;11.43;3.95;;;14.60;99.90;;;;;;6273012;22;20000;-80
2023/06/30 03:55:33;;;;;;;9.23;4.30;;;14.60;99.90;;;;;;6245772;22;20003;-80
2023/06/30 03:57:59;;;;;;;10.73;4.28;;;14.60;99.90;;;;;;6245878;22;20011;-80
2023/06/30 04:00:24;;;;;;;6.03;3.88;;;14.50;99.90;;;;;;6273220;22;20099;-80
2023/06/30 04:02:50;;;;;;;9.93;3.80;;;14.50;99.90;;;;;;6273442;22;20058;-81
2023/06/30 04:05:15;;;;;;;6.07;3.45;;;14.50;99.90;;;;;;6272885;22;20010;-80
2023/06/30 04:07:41;;;;;;;9.88;4.68;;;14.50;99.90;;;;;;6246062;22;20117;-81
2023/06/30 04:10:07;;;;;;;11.73;4.25;;;14.50;99.90;;;;;;6272378;22;20011;-80
2023/06/30 04:12:33;;;;;;;10.07;4.43;;;14.50;99.90;;;;;;6245935;22;20004;-80
2023/06/30 04:14:58;;;;;;;9.50;5.25;;;14.50;99.90;;;;;;6274803;22;19999;-81
2023/06/30 04:17:24;;;;;;;8.15;3.70;;;14.50;99.90;;;;;;6275540;22;20063;-81
2023/06/30 04:19:49;;;;;;;10.20;4.47;;;14.50;99.90;;;;;;6246995;22;20057;-81
2023/06/30 04:22:15;;;;;;;9.35;3.83;;;14.50;99.90;;;;;;6245383;22;20053;-80
2023/06/30 04:24:40;;;;;;;7.68;4.28;;;14.50;99.90;;;;;;6245280;22;20012;-80
2023/06/30 04:27:06;;;;;;;9.82;4.45;;;14.50;99.90;;;;;;6275776;22;20007;-80
2023/06/30 04:29:32;;;;;;;9.75;4.22;;;14.50;99.90;;;;;;6249678;22;20000;-81
2023/06/30 04:31:57;;;;;;;6.35;4.20;;;14.50;99.90;;;;;;6245603;22;20010;-81
2023/06/30 04:34:23;;;;;;;9.05;5.00;;;14.50;99.90;;;;;;6273062;22;20026;-81
2023/06/30 04:36:51;;;;;;;10.70;4.22;;;14.50;99.90;;;;;;6273089;22;20074;-81
2023/06/30 04:39:16;;;;;;;8.02;3.90;;;14.60;99.90;;;;;;6272008;22;20018;-81
2023/06/30 04:41:42;;;;;;;7.43;3.60;;;14.60;99.90;;;;;;6245937;22;20050;-81
2023/06/30 04:44:08;;;;;;;6.72;4.40;;;14.60;99.90;;;;;;6272663;22;19996;-81
2023/06/30 04:46:33;;;;;;;7.65;3.95;;;14.60;99.90;;;;;;6245887;22;20003;-80
2023/06/30 04:49:00;;;;;;;9.75;4.13;;;14.60;99.90;;;;;;6245458;22;20035;-80
2023/06/30 04:51:26;;;;;;;5.72;3.72;;;14.70;99.90;;;;;;6245476;22;20008;-81
2023/06/30 04:53:51;;;;;;;7.20;4.32;;;14.70;99.90;;;;;;6272466;22;20019;-81
2023/06/30 04:56:17;;;;;;;6.10;3.83;;;14.70;99.90;;;;;;6272175;22;20038;-81
2023/06/30 04:58:42;;;;;;;8.43;4.00;;;14.70;99.90;;;;;;6246055;22;19996;-80
2023/06/30 05:01:08;;;;;;;9.45;4.03;;;14.80;99.90;;;;;;6272249;22;20019;-80
2023/06/30 05:03:34;;;;;;;6.30;4.15;;;14.80;99.90;;;;;;6272815;22;20010;-80
2023/06/30 05:06:00;;;;;;;10.60;4.38;;;14.90;99.90;;;;;;6272424;22;19996;-81
2023/06/30 05:08:25;;;;;;;10.15;3.90;;;14.90;99.90;;;;;;6244899;22;20090;-81
2023/06/30 05:10:51;;;;;;;6.50;3.47;;;14.90;99.90;;;;;;6245389;22;20387;-80
2023/06/30 05:13:16;;;;;;;8.00;2.85;;;15.00;99.90;;;;;;6272264;22;19996;-80
2023/06/30 05:15:42;;;;;;;9.80;4.53;;;15.10;99.90;;;;;;6272573;22;20007;-81
2023/06/30 05:18:08;;;;;;;6.57;3.90;;;15.20;99.90;;;;;;6272186;22;20004;-80
2023/06/30 05:20:34;;;;;;;10.88;4.35;;;15.20;99.90;;;;;;6245324;22;20004;-81
2023/06/30 05:23:00;;;;;;;10.85;3.45;;;15.30;99.90;;;;;;6244706;22;20073;-80
2023/06/30 05:25:25;;;;;;;8.85;3.63;;;15.40;99.90;;;;;;6245123;22;20318;-81
2023/06/30 05:27:51;;;;;;;9.75;3.35;;;15.40;99.90;;;;;;6245328;22;20046;-81
2023/06/30 05:30:18;;;;;;;7.45;3.10;;;15.50;99.90;;;;;;6244951;22;20005;-80
2023/06/30 05:32:43;;;;;;;9.65;2.60;;;15.50;99.90;;;;;;6245388;22;20038;-81
2023/06/30 05:35:09;;;;;;;8.35;3.10;;;15.60;99.90;;;;;;6244270;22;20003;-84
2023/06/30 05:37:35;;;;;;;6.95;3.22;;;15.70;99.90;;;;;;6245383;22;20026;-83
2023/06/30 05:40:01;;;;;;;6.03;2.38;;;15.70;99.90;;;;;;6244914;22;20012;-84
2023/06/30 05:42:26;;;;;;;5.53;2.58;;;15.80;99.90;;;;;;6245332;22;20004;-82
2023/06/30 05:44:52;;;;;;;6.25;2.60;;;15.90;99.90;;;;;;6272436;22;20081;-81
2023/06/30 05:47:18;;;;;;;8.15;3.10;;;15.90;99.90;;;;;;6244877;22;20000;-82
2023/06/30 05:49:43;;;;;;;10.27;3.15;;;16.00;99.90;;;;;;6244905;22;20007;-81
2023/06/30 05:52:09;;;;;;;7.70;3.45;;;16.10;99.90;;;;;;6272036;22;20410;-82
2023/06/30 05:54:35;;;;;;;3.28;2.50;;;16.20;99.90;;;;;;6271933;22;20008;-81
2023/06/30 05:57:00;;;;;;;9.85;4.03;;;16.20;99.90;;;;;;6271917;22;20035;-81
2023/06/30 05:59:28;;;;;;;5.15;2.33;;;16.30;99.90;;;;;;6270854;22;20018;-81
2023/06/30 06:01:54;;;;;;;10.73;2.25;;;16.40;99.90;;;;;;6243330;22;20031;-81
2023/06/30 06:04:20;;;;;;;7.38;2.00;;;16.40;99.90;;;;;;6244110;22;20000;-79
2023/06/30 06:06:45;;;;;;;2.92;1.67;;;16.50;99.90;;;;;;6244986;22;20015;-82
2023/06/30 06:09:11;;;;;;;6.85;2.00;;;16.50;99.90;;;;;;6244516;22;20140;-81
2023/06/30 06:11:38;;;;;;;6.30;2.80;;;16.60;99.90;;;;;;6245169;22;20414;-81
2023/06/30 06:14:04;;;;;;;7.47;2.45;;;16.60;99.90;;;;;;6272982;22;20003;-81
2023/06/30 06:16:29;;;;;;;7.05;2.03;;;16.70;99.90;;;;;;6246158;22;20307;-82
2023/06/30 06:18:55;;;;;;;10.52;1.88;;;16.80;99.90;;;;;;6271977;22;20014;-81
2023/06/30 06:21:24;;;;;;;7.03;2.40;;;16.80;99.90;;;;;;6244774;22;20065;-82
2023/06/30 06:23:50;;;;;;;3.63;2.20;;;16.90;99.90;;;;;;6272057;22;19992;-82
2023/06/30 06:26:16;;;;;;;7.40;2.20;;;16.90;99.90;;;;;;6244430;22;20004;-82
2023/06/30 06:28:42;;;;;;;5.30;2.00;;;17.00;99.90;;;;;;6245209;22;20006;-82
2023/06/30 06:31:09;;;;;;;5.25;2.72;;;17.10;99.90;;;;;;6272810;22;20007;-82
2023/06/30 06:33:35;;;;;;;6.32;2.08;;;17.10;99.80;;;;;;6272855;22;20066;-82
2023/06/30 06:36:01;;;;;;;4.47;2.10;;;17.10;99.40;;;;;;6245231;22;20007;-80
2023/06/30 06:38:26;;;;;;;5.10;1.67;;;17.10;99.10;;;;;;6244111;22;20437;-82
2023/06/30 06:40:52;;;;;;;3.22;1.88;;;17.20;99.10;;;;;;6244951;22;20049;-82
2023/06/30 06:43:17;;;;;;;5.28;2.00;;;17.20;98.90;;;;;;6245933;22;20020;-81
2023/06/30 06:45:44;;;;;;;5.20;1.50;;;17.20;98.70;;;;;;6274068;22;20007;-82
2023/06/30 06:48:24;;;;;;;6.75;2.28;;;17.30;98.70;;;;;;6246515;22;20012;-81
2023/06/30 06:50:58;;;;;;;5.50;2.17;;;17.40;98.50;;;;;;6247990;22;20089;-82
2023/06/30 06:53:27;;;;;;;8.07;2.28;;;17.40;98.40;;;;;;6247968;22;19995;-82
2023/06/30 06:55:54;;;;;;;5.57;2.25;;;17.50;98.40;;;;;;6276375;22;19992;-80
2023/06/30 06:58:20;;;;;;;5.65;1.88;;;17.50;98.30;;;;;;6247199;22;20008;-82
2023/06/30 07:00:48;;;;;;;3.00;1.63;;;17.60;97.90;;;;;;6247999;22;20019;-82
2023/06/30 07:03:13;;;;;;;5.22;1.85;;;17.60;97.60;;;;;;6246901;22;20495;-82
2023/06/30 07:05:40;;;;;;;4.35;1.42;;;17.60;97.30;;;;;;6275083;22;20003;-81
2023/06/30 07:08:07;;;;;;;4.40;1.60;;;17.70;97.10;;;;;;6247730;22;20003;-81
2023/06/30 07:10:33;;;;;;;5.20;1.25;;;17.70;97.20;;;;;;6275090;22;20003;-81
2023/06/30 07:12:58;;;;;;;6.63;1.50;;;17.80;97.00;;;;;;6274854;22;20091;-81
2023/06/30 07:15:25;;;;;;;4.03;1.00;;;17.90;96.60;;;;;;6248031;22;20012;-82
2023/06/30 07:17:50;;;;;;;4.10;1.30;;;18.00;96.20;;;;;;6247382;22;20004;-82
2023/06/30 07:20:16;;;;;;;3.05;1.05;;;18.10;96.00;;;;;;6247510;22;20504;-82
2023/06/30 07:22:41;;;;;;;4.22;1.33;;;18.10;95.60;;;;;;6248086;22;20016;-81
2023/06/30 07:25:08;;;;;;;2.38;1.20;;;18.20;95.20;;;;;;6246972;22;20012;-81
2023/06/30 07:27:36;;;;;;;4.63;1.30;;;18.20;95.10;;;;;;6248230;22;20002;-82
2023/06/30 07:30:01;;;;;;;8.93;1.63;;;18.30;95.00;;;;;;6274664;22;20451;-81
2023/06/30 07:32:27;;;;;;;2.95;0.90;;;18.30;94.40;;;;;;6274523;22;20011;-82
2023/06/30 07:34:53;;;;;;;1.63;0.90;;;18.30;93.80;;;;;;6247463;22;20397;-81
2023/06/30 07:37:18;;;;;;;2.85;1.13;;;18.40;93.80;;;;;;6274469;22;20200;-82
2023/06/30 07:39:44;;;;;;;3.83;1.20;;;18.50;93.50;;;;;;6275233;22;20389;-81
2023/06/30 07:42:09;;;;;;;2.35;0.90;;;18.50;93.20;;;;;;6247009;22;20011;-81
2023/06/30 07:44:35;;;;;;;3.85;1.30;;;18.60;93.30;;;;;;6247617;22;20039;-81
2023/06/30 07:47:00;;;;;;;1.85;1.00;;;18.70;92.90;;;;;;6247057;22;20365;-81
2023/06/30 07:49:26;;;;;;;3.72;1.42;;;18.80;92.60;;;;;;6247136;22;20049;-81
2023/06/30 07:51:52;;;;;;;4.22;1.02;;;18.90;92.40;;;;;;6274891;22;20007;-81
2023/06/30 07:54:18;;;;;;;4.55;1.35;;;19.00;92.30;;;;;;6247669;22;20000;-82
2023/06/30 07:56:46;;;;;;;5.07;0.93;;;19.00;92.10;;;;;;6247982;22;20011;-82
2023/06/30 07:59:11;;;;;;;4.38;1.42;;;19.10;91.90;;;;;;6246677;22;20456;-82
2023/06/30 08:01:37;;;;;;;2.75;1.08;;;19.20;91.10;;;;;;6272414;22;20020;-81
2023/06/30 08:04:02;;;;;;;3.92;0.80;;;19.20;91.10;;;;;;6245644;22;20087;-81
2023/06/30 08:06:28;;;;;;;3.83;0.90;;;19.30;91.40;;;;;;6273035;22;20049;-82
2023/06/30 08:08:53;;;;;;;3.72;1.00;;;19.50;91.20;;;;;;6245703;22;20328;-81
2023/06/30 08:11:20;;;;;;;4.40;1.20;;;19.60;90.70;;;;;;6245650;22;20015;-82
2023/06/30 08:13:46;;;;;;;5.63;1.17;;;19.60;90.60;;;;;;6245437;22;20368;-82
2023/06/30 08:16:11;;;;;;;4.30;1.30;;;19.70;90.10;;;;;;6244247;22;20004;-82
2023/06/30 08:18:37;;;;;;;2.90;0.73;;;19.80;89.70;;;;;;6272390;22;20698;-82
2023/06/30 08:21:03;;;;;;;2.17;1.05;;;19.80;89.20;;;;;;6244691;22;20145;-82
2023/06/30 08:23:29;;;;;;;5.13;0.95;;;19.80;88.60;;;;;;6271931;22;20034;-81
2023/06/30 08:25:55;;;;;;;1.98;1.10;;;19.90;88.70;;;;;;6244584;22;19999;-81
2023/06/30 08:28:23;;;;;;;6.85;1.15;;;19.90;88.60;;;;;;6244917;22;20077;-80
2023/06/30 08:30:50;;;;;;;4.38;1.15;;;20.00;88.10;;;;;;6244532;22;20011;-81
2023/06/30 08:33:16;;;;;;;3.25;0.98;;;20.10;87.30;;;;;;6271852;22;20003;-81
2023/06/30 08:35:41;;;;;;;3.22;1.08;;;20.20;87.10;;;;;;6273082;22;19996;-81
2023/06/30 08:38:07;;;;;;;3.83;1.23;;;20.30;86.40;;;;;;6245833;22;20086;-81
2023/06/30 08:40:33;;;;;;;3.03;0.82;;;20.30;86.40;;;;;;6245987;22;20008;-81
2023/06/30 08:43:00;;;;;;;3.08;0.88;;;20.40;86.10;;;;;;6275163;22;20117;-81
2023/06/30 08:45:28;;;;;;;3.45;1.08;;;20.50;86.10;;;;;;6244441;22;20019;-81
2023/06/30 08:47:58;;;;;;;4.78;1.17;;;20.60;85.60;;;;;;6244502;22;20015;-81
2023/06/30 08:50:24;;;;;;;4.35;1.00;;;20.70;84.90;;;;;;6271937;22;20054;-81
2023/06/30 08:52:51;;;;;;;5.78;1.35;;;20.70;84.60;;;;;;6244684;22;20000;-82
2023/06/30 08:55:16;;;;;;;3.97;0.93;;;20.80;84.80;;;;;;6271723;22;20030;-79
2023/06/30 08:57:43;;;;;;;2.92;1.25;;;20.90;84.30;;;;;;6244689;22;20030;-82
2023/06/30 09:00:10;;;;;;;3.05;0.88;;;21.00;83.60;;;;;;6238354;23;20051;-82
2023/06/30 09:02:37;;;;;;;3.83;1.05;;;21.00;82.40;;;;;;6241088;22;20054;-81
2023/06/30 09:05:04;;;;;;;2.42;0.70;;;21.10;81.80;;;;;;6240851;22;20000;-82
2023/06/30 09:07:38;;;;;;;2.50;1.08;;;21.10;81.60;;;;;;6241054;22;20050;-82
2023/06/30 09:10:09;;;;;;;6.07;1.00;;;21.30;80.20;;;;;;6238965;23;20382;-82
2023/06/30 09:12:37;;;;;;;3.00;0.70;;;21.20;79.80;;;;;;6240757;23;20399;-82
2023/06/30 09:15:03;;;;;;;4.57;1.05;;;21.30;80.10;;;;;;6242920;22;20082;-82
2023/06/30 09:17:30;;;;;;;2.40;1.00;;;21.40;80.10;;;;;;6239626;23;20004;-82
2023/06/30 09:19:55;;;;;;;4.75;1.30;;;21.60;80.60;;;;;;6238974;23;20047;-81
2023/06/30 09:22:21;;;;;;;3.30;1.08;;;21.70;80.20;;;;;;6239249;23;20000;-82
2023/06/30 09:24:47;;;;;;;2.72;1.13;;;21.90;80.70;;;;;;6243002;22;20004;-81
2023/06/30 09:27:13;;;;;;;3.88;1.02;;;22.00;80.70;;;;;;6240663;23;20329;-82
2023/06/30 09:29:39;;;;;;;3.88;1.00;;;22.20;79.70;;;;;;6239189;23;20035;-82
2023/06/30 09:32:05;;;;;;;5.50;1.10;;;22.40;79.30;;;;;;6239018;23;20000;-82
2023/06/30 09:34:31;;;;;;;2.30;0.90;;;22.40;78.80;;;;;;6240832;22;19996;-81
2023/06/30 09:36:57;;;;;;;2.38;0.93;;;22.60;78.70;;;;;;6240670;22;19996;-82
2023/06/30 09:39:23;;;;;;;3.25;1.10;;;22.70;77.60;;;;;;6240768;22;20004;-82
2023/06/30 09:41:50;;;;;;;1.95;0.77;;;22.90;77.70;;;;;;6237051;23;20015;-81
2023/06/30 09:44:20;;;;;;;3.75;0.98;;;22.90;77.00;;;;;;6238211;23;20015;-81
2023/06/30 09:46:52;;;;;;;6.72;1.20;;;23.00;76.70;;;;;;6240563;22;20287;-84
2023/06/30 09:49:39;;;;;;;3.97;1.17;;;23.00;76.10;;;;;;6240301;23;20081;-82
2023/06/30 09:52:05;;;;;;;2.28;0.80;;;23.00;75.60;;;;;;6241643;22;20000;-83
2023/06/30 09:54:33;;;;;;;3.08;1.20;;;23.00;76.50;;;;;;6239525;23;20082;-82
2023/06/30 09:57:00;;;;;;;3.75;0.98;;;23.00;75.90;;;;;;6236752;23;20004;-81
2023/06/30 09:59:26;;;;;;;3.17;1.15;;;23.10;75.50;;;;;;6238973;22;20008;-80
2023/06/30 10:01:56;;;;;;;5.53;1.27;;;23.10;75.20;;;;;;6270142;22;20425;-81
2023/06/30 10:04:22;;;;;;;5.03;1.20;;;23.20;75.00;;;;;;6243809;22;20380;-81
2023/06/30 10:06:51;;;;;;;5.63;1.63;;;23.30;75.50;;;;;;6245476;22;20010;-81
2023/06/30 10:09:19;;;;;;;3.17;1.10;;;23.40;74.70;;;;;;6271258;22;20062;-80
2023/06/30 10:11:52;;;;;;;3.17;1.30;;;23.60;74.30;;;;;;6244211;22;20007;-77
2023/06/30 10:14:20;;;;;;;3.00;1.23;;;23.60;73.30;;;;;;6244343;22;19999;-82
2023/06/30 10:16:47;;;;;;;2.05;1.15;;;23.70;73.70;;;;;;6271777;22;20003;-81
2023/06/30 10:19:14;;;;;;;6.15;1.40;;;23.80;74.00;;;;;;6270581;22;19995;-82
2023/06/30 10:21:41;;;;;;;5.30;1.63;;;23.80;73.10;;;;;;6271200;22;20425;-81
2023/06/30 10:24:09;;;;;;;2.65;1.13;;;23.80;73.10;;;;;;6242951;22;20003;-81
2023/06/30 10:26:36;;;;;;;2.80;1.05;;;23.80;72.90;;;;;;6243181;22;20057;-82
2023/06/30 10:29:03;;;;;;;4.30;1.30;;;23.80;72.60;;;;;;6270684;22;20042;-81
2023/06/30 10:31:30;;;;;;;1.88;1.08;;;23.80;72.40;;;;;;6271012;22;20027;-82
2023/06/30 10:33:55;;;;;;;1.88;0.90;;;23.90;72.90;;;;;;6270592;22;20000;-81
2023/06/30 10:36:22;;;;;;;3.22;1.30;;;24.00;72.60;;;;;;6243381;22;20031;-81
2023/06/30 10:38:48;;;;;;;3.88;1.02;;;24.10;71.60;;;;;;6271211;22;20038;-82
2023/06/30 10:41:19;;;;;;;5.28;1.17;;;24.00;71.60;;;;;;6270325;22;19995;-81
2023/06/30 10:44:03;;;;;;;7.72;1.73;;;24.10;71.90;;;;;;6271015;22;19996;-81
2023/06/30 10:46:47;;;;;;;4.53;1.75;;;24.10;71.90;;;;;;6271126;22;20004;-82
2023/06/30 10:49:40;;;;;;;7.53;1.35;;;24.00;71.20;;;;;;6243157;22;20055;-81
2023/06/30 10:52:24;;;;;;;3.22;1.27;;;24.00;71.00;;;;;;6257750;22;20015;-80
2023/06/30 10:54:50;;;;;;;7.75;1.75;;;23.90;71.10;;;;;;6243088;22;20023;-80
2023/06/30 10:57:25;;;;;;;2.55;1.02;;;23.80;71.20;;;;;;6243315;22;20105;-80
2023/06/30 11:00:10;;;;;;;3.38;0.93;;;23.80;71.20;;;;;;6243231;22;20012;-78
2023/06/30 11:02:37;;;;;;;3.97;1.33;;;23.80;71.20;;;;;;6243510;22;20007;-76
2023/06/30 11:05:19;;;;;;;4.85;1.40;;;23.70;70.40;;;;;;6243403;22;20410;-80
2023/06/30 11:07:55;;;;;;;3.03;1.02;;;23.60;70.80;;;;;;6270785;22;20000;-80
2023/06/30 11:10:50;;;;;;;3.25;1.17;;;23.50;70.80;;;;;;6242864;22;20007;-80
2023/06/30 11:13:35;;;;;;;6.13;1.35;;;23.50;71.30;;;;;;6244700;22;20082;-79
2023/06/30 11:16:02;;;;;;;6.20;2.13;;;23.50;71.50;;;;;;6243247;22;19996;-80
2023/06/30 11:18:28;;;;;;;3.55;1.58;;;23.50;71.30;;;;;;6270730;22;20046;-79
2023/06/30 11:21:05;;;;;;;3.55;1.48;;;23.50;71.40;;;;;;6243036;22;20008;-79
2023/06/30 11:23:37;;;;;;;7.07;1.73;;;23.50;72.70;;;;;;6243457;22;20003;-80
2023/06/30 11:26:16;;;;;;;5.35;1.67;;;23.50;72.70;;;;;;6243201;22;20079;-80
2023/06/30 11:28:43;;;;;;;2.47;1.35;;;23.50;72.40;;;;;;6243869;22;20004;-80
2023/06/30 11:31:10;;;;;;;4.03;1.83;;;23.50;72.00;;;;;;6243373;22;20011;-80
2023/06/30 11:33:40;;;;;;;4.68;1.80;;;23.60;70.80;;;;;;6243619;22;20007;-81
2023/06/30 11:36:16;;;;;;;4.88;1.77;;;23.50;70.50;;;;;;6245115;22;20113;-80
2023/06/30 11:38:45;;;;;;;6.60;1.95;;;23.60;71.60;;;;;;6272035;22;20053;-79
2023/06/30 11:41:11;;;;;;;3.25;1.92;;;23.70;72.00;;;;;;6245437;22;20006;-79
2023/06/30 11:43:39;;;;;;;5.20;2.45;;;23.80;71.90;;;;;;6246596;22;20452;-80
2023/06/30 11:46:05;;;;;;;3.75;1.85;;;23.90;71.60;;;;;;6273637;22;20050;-80
2023/06/30 11:48:38;;;;;;;5.18;2.42;;;24.00;71.90;;;;;;6245448;22;20024;-80
2023/06/30 11:51:03;;;;;;;4.40;2.33;;;24.10;72.00;;;;;;6244869;22;20033;-79
2023/06/30 11:53:30;;;;;;;4.30;1.83;;;24.20;71.60;;;;;;6245040;22;20054;-80
2023/06/30 11:55:57;;;;;;;5.57;2.17;;;24.20;71.20;;;;;;6274021;22;20003;-79
2023/06/30 11:58:23;;;;;;;4.15;1.77;;;24.30;71.70;;;;;;6272539;22;20458;-80
2023/06/30 12:00:48;;;;;;;5.68;2.70;;;24.40;70.90;;;;;;6245141;22;20031;-80
2023/06/30 12:03:16;;;;;;;3.65;1.70;;;24.50;70.50;;;;;;6244953;22;20087;-81
2023/06/30 12:05:43;;;;;;;5.82;2.00;;;24.50;70.30;;;;;;6244924;22;20004;-79
2023/06/30 12:08:08;;;;;;;6.43;2.05;;;24.60;70.10;;;;;;6244078;22;20011;-80
2023/06/30 12:10:36;;;;;;;2.92;1.52;;;24.70;70.60;;;;;;6244996;22;20008;-80
2023/06/30 12:13:06;;;;;;;4.22;1.70;;;24.80;69.20;;;;;;6244441;22;20053;-79
2023/06/30 12:15:32;;;;;;;4.78;1.80;;;24.70;68.90;;;;;;6245136;22;20007;-80
2023/06/30 12:17:57;;;;;;;6.55;2.20;;;24.60;69.50;;;;;;6244573;22;20319;-80
2023/06/30 12:20:35;;;;;;;5.90;2.10;;;24.50;69.40;;;;;;6244836;22;20075;-80
2023/06/30 12:23:01;;;;;;;4.25;1.67;;;24.50;70.00;;;;;;6244301;22;20089;-80
2023/06/30 12:25:36;;;;;;;4.10;1.63;;;24.60;70.10;;;;;;6271857;22;20050;-80
2023/06/30 12:28:05;;;;;;;3.63;1.33;;;24.50;69.80;;;;;;6244729;22;20003;-81
2023/06/30 12:30:31;;;;;;;6.13;2.17;;;24.50;69.60;;;;;;6244683;22;20033;-79
2023/06/30 12:32:58;;;;;;;6.18;2.33;;;24.50;69.00;;;;;;6271819;22;20045;-79
2023/06/30 12:35:29;;;;;;;3.08;2.00;;;24.60;69.10;;;;;;6272033;22;20000;-80
2023/06/30 12:37:54;;;;;;;4.88;1.60;;;24.60;68.50;;;;;;6270929;22;20321;-79
2023/06/30 12:40:22;;;;;;;6.78;1.92;;;24.70;69.10;;;;;;6271801;22;20000;-80
2023/06/30 12:42:47;;;;;;;2.72;1.60;;;24.80;69.40;;;;;;6245043;22;20004;-79
2023/06/30 12:45:14;;;;;;;4.45;2.08;;;25.00;70.00;;;;;;6243597;22;20015;-80